Time;durP1;ratioP1;P1;durP2;ratioP2;P2;SDS_P1;SDS_P2;PMS_P1;PMS_P2;Temp;Humidity;BMP_temperature;BMP_pressure;BME280_temperature;BME280_humidity;BME280_pressure;Samples;Min_cycle;Max_cycle;Signal;HPM_P1;HPM_P2
2022/03/31 00:01:26;;;;;;;4.47;1.33;;;4.20;93.20;;;;;;4927495;28;20049;-62
2022/03/31 00:03:52;;;;;;;7.22;1.30;;;4.20;94.00;;;;;;4952943;28;20400;-62
2022/03/31 00:06:17;;;;;;;4.50;1.60;;;4.20;94.80;;;;;;4934315;28;20677;-62
2022/03/31 00:08:43;;;;;;;5.43;1.48;;;4.10;95.40;;;;;;4943619;28;20042;-62
2022/03/31 00:11:09;;;;;;;5.85;1.50;;;4.10;96.40;;;;;;4926601;28;20064;-63
2022/03/31 00:13:35;;;;;;;3.22;1.27;;;4.10;96.90;;;;;;4947858;28;20036;-63
2022/03/31 00:16:01;;;;;;;4.30;1.30;;;4.10;97.60;;;;;;4922676;29;20188;-62
2022/03/31 00:18:29;;;;;;;6.53;1.40;;;4.10;97.90;;;;;;4930870;28;20063;-62
2022/03/31 00:20:55;;;;;;;7.13;1.50;;;4.00;98.50;;;;;;4928502;28;20500;-63
2022/03/31 00:23:21;;;;;;;4.20;1.23;;;4.00;98.60;;;;;;4927684;28;20506;-62
2022/03/31 00:25:47;;;;;;;5.68;1.48;;;4.00;98.90;;;;;;4900442;29;20058;-61
2022/03/31 00:28:13;;;;;;;5.32;1.65;;;4.00;99.10;;;;;;4910245;29;20047;-62
2022/03/31 00:30:39;;;;;;;2.55;1.13;;;4.00;99.50;;;;;;4908899;29;20047;-62
2022/03/31 00:33:05;;;;;;;4.00;1.23;;;4.00;99.70;;;;;;4923978;29;20106;-62
2022/03/31 00:35:31;;;;;;;5.20;1.80;;;4.00;99.80;;;;;;4901306;28;20143;-62
2022/03/31 00:37:57;;;;;;;3.67;1.23;;;4.10;99.90;;;;;;4901944;29;20479;-62
2022/03/31 00:40:24;;;;;;;4.70;1.10;;;4.00;99.90;;;;;;4946656;28;20151;-61
2022/03/31 00:42:52;;;;;;;4.97;1.27;;;4.00;99.90;;;;;;4925187;28;20053;-62
2022/03/31 00:45:20;;;;;;;5.13;1.50;;;4.00;99.90;;;;;;4933067;28;20366;-63
2022/03/31 00:47:47;;;;;;;5.38;1.20;;;4.00;99.90;;;;;;4940334;28;20600;-62
2022/03/31 00:50:13;;;;;;;3.70;1.10;;;4.00;99.90;;;;;;4945115;28;20532;-61
2022/03/31 00:52:40;;;;;;;2.90;1.30;;;4.00;99.90;;;;;;4932770;28;20052;-63
2022/03/31 00:55:09;;;;;;;3.67;1.30;;;4.00;99.90;;;;;;4933097;29;20055;-62
2022/03/31 00:57:35;;;;;;;3.97;1.02;;;4.00;99.90;;;;;;4923500;28;20851;-62
2022/03/31 01:00:02;;;;;;;2.55;1.02;;;4.00;99.90;;;;;;4919425;29;20047;-63
2022/03/31 01:02:32;;;;;;;2.60;1.20;;;3.90;99.90;;;;;;4931926;29;20725;-62
2022/03/31 01:05:02;;;;;;;3.55;1.10;;;3.90;99.90;;;;;;4926028;29;20083;-63
2022/03/31 01:07:28;;;;;;;1.50;1.13;;;3.90;99.90;;;;;;4924020;28;20052;-62
2022/03/31 01:09:56;;;;;;;2.05;1.20;;;3.90;99.90;;;;;;4942694;28;20061;-62
2022/03/31 01:12:22;;;;;;;4.38;1.27;;;3.90;99.90;;;;;;4927755;28;20078;-62
2022/03/31 01:15:07;;;;;;;2.70;1.20;;;3.80;99.90;;;;;;4913982;29;20296;-62
2022/03/31 01:17:35;;;;;;;6.00;1.20;;;3.80;99.90;;;;;;4917623;29;20556;-62
2022/03/31 01:20:03;;;;;;;3.15;1.70;;;3.80;99.90;;;;;;4912257;28;20058;-62
2022/03/31 01:22:31;;;;;;;3.38;1.67;;;3.80;99.90;;;;;;4931170;29;20054;-62
2022/03/31 01:25:03;;;;;;;3.97;1.40;;;3.80;99.90;;;;;;4940801;29;20055;-62
2022/03/31 01:27:29;;;;;;;3.60;1.80;;;3.80;99.90;;;;;;4925708;28;20074;-62
2022/03/31 01:29:55;;;;;;;8.30;2.60;;;3.70;99.90;;;;;;4928717;29;20130;-63
2022/03/31 01:32:21;;;;;;;4.55;2.70;;;3.70;99.90;;;;;;4926334;28;21735;-62
2022/03/31 01:34:48;;;;;;;6.53;2.60;;;3.60;99.90;;;;;;4930911;29;20588;-62
2022/03/31 01:37:14;;;;;;;5.72;3.08;;;3.60;99.90;;;;;;4928208;29;20541;-62
2022/03/31 01:39:40;;;;;;;4.03;3.20;;;3.60;99.90;;;;;;4939966;28;20055;-62
2022/03/31 01:42:07;;;;;;;7.70;3.63;;;3.60;99.90;;;;;;4930502;28;20457;-62
2022/03/31 01:44:33;;;;;;;8.85;4.10;;;3.60;99.90;;;;;;4929592;28;20513;-63
2022/03/31 01:46:59;;;;;;;6.60;3.55;;;3.60;99.90;;;;;;4944911;28;20051;-63
2022/03/31 01:49:25;;;;;;;7.00;3.83;;;3.60;99.90;;;;;;4926760;28;20080;-63
2022/03/31 01:51:51;;;;;;;6.10;4.10;;;3.60;99.90;;;;;;4928524;29;20051;-63
2022/03/31 01:54:17;;;;;;;6.55;3.95;;;3.60;99.90;;;;;;4930340;28;20056;-61
2022/03/31 01:56:44;;;;;;;7.20;4.15;;;3.50;99.90;;;;;;4925656;28;20050;-62
2022/03/31 01:59:11;;;;;;;6.47;4.13;;;3.50;99.90;;;;;;4925573;28;20040;-61
2022/03/31 02:01:37;;;;;;;7.25;4.15;;;3.50;99.90;;;;;;4937500;28;20043;-61
2022/03/31 02:04:03;;;;;;;8.40;4.80;;;3.50;99.90;;;;;;4923388;28;20425;-62
2022/03/31 02:06:29;;;;;;;6.47;4.40;;;3.50;99.90;;;;;;4921014;29;20075;-62
2022/03/31 02:08:56;;;;;;;7.35;4.60;;;3.50;99.90;;;;;;4923366;28;20042;-62
2022/03/31 02:11:22;;;;;;;5.38;4.43;;;3.50;99.90;;;;;;4916994;28;20074;-62
2022/03/31 02:13:48;;;;;;;8.70;5.10;;;3.50;99.90;;;;;;4932201;28;20130;-61
2022/03/31 02:16:14;;;;;;;9.45;4.95;;;3.50;99.90;;;;;;4930317;28;20081;-62
2022/03/31 02:18:40;;;;;;;6.95;4.97;;;3.50;99.90;;;;;;4912749;28;20165;-62
2022/03/31 02:21:07;;;;;;;8.50;5.10;;;3.50;99.90;;;;;;4923317;28;20484;-62
2022/03/31 02:23:33;;;;;;;8.40;4.88;;;3.50;99.90;;;;;;4938184;28;20055;-61
2022/03/31 02:25:58;;;;;;;7.28;5.43;;;3.50;99.90;;;;;;4933103;28;20752;-62
2022/03/31 02:28:24;;;;;;;7.75;5.50;;;3.50;99.90;;;;;;4931360;28;20047;-62
2022/03/31 02:30:50;;;;;;;8.77;5.60;;;3.50;99.90;;;;;;4913022;28;20078;-61
2022/03/31 02:33:16;;;;;;;8.25;5.88;;;3.50;99.90;;;;;;4927940;28;20043;-62
2022/03/31 02:35:42;;;;;;;11.05;6.35;;;3.50;99.90;;;;;;4928529;28;20141;-62
2022/03/31 02:38:07;;;;;;;11.43;7.10;;;3.50;99.90;;;;;;4912475;28;20102;-63
2022/03/31 02:40:33;;;;;;;9.23;7.30;;;3.50;99.90;;;;;;4911617;28;20326;-62
2022/03/31 02:42:59;;;;;;;9.20;7.53;;;3.50;99.90;;;;;;4928077;28;20050;-62
2022/03/31 02:45:25;;;;;;;10.23;8.20;;;3.50;99.90;;;;;;4928001;28;20125;-62
2022/03/31 02:47:51;;;;;;;8.23;7.05;;;3.50;99.90;;;;;;4929613;28;20054;-62
2022/03/31 02:50:17;;;;;;;12.57;7.85;;;3.50;99.90;;;;;;4919840;28;20051;-62
2022/03/31 02:55:30;;;;;;;8.38;6.75;;;3.50;99.90;;;;;;4917192;28;20629;-63
2022/03/31 02:57:57;;;;;;;8.02;7.03;;;3.40;99.90;;;;;;4907022;28;20047;-63
2022/03/31 03:00:23;;;;;;;8.43;6.35;;;3.40;99.90;;;;;;4921046;28;20050;-62
2022/03/31 03:02:50;;;;;;;9.43;7.22;;;3.40;99.90;;;;;;4929869;28;20137;-62
2022/03/31 03:05:16;;;;;;;10.57;6.47;;;3.40;99.90;;;;;;4926933;28;20051;-61
2022/03/31 03:07:42;;;;;;;7.15;6.15;;;3.40;99.90;;;;;;4936678;28;20058;-63
2022/03/31 03:10:08;;;;;;;8.95;5.40;;;3.40;99.90;;;;;;4944488;28;20117;-62
2022/03/31 03:12:34;;;;;;;7.25;5.32;;;3.40;99.90;;;;;;4914366;28;20132;-62
2022/03/31 03:15:00;;;;;;;8.48;4.95;;;3.40;99.90;;;;;;4915740;28;20118;-63
2022/03/31 03:17:25;;;;;;;5.43;4.13;;;3.30;99.90;;;;;;4919221;28;20129;-62
2022/03/31 03:19:51;;;;;;;8.05;3.17;;;3.30;99.90;;;;;;4930689;28;20043;-62
2022/03/31 03:22:17;;;;;;;3.25;2.80;;;3.30;99.90;;;;;;4930852;28;20113;-61
2022/03/31 03:24:43;;;;;;;4.32;2.40;;;3.20;99.90;;;;;;4929375;28;20101;-63
2022/03/31 03:27:08;;;;;;;3.60;2.70;;;3.20;99.90;;;;;;4933785;28;20058;-62
2022/03/31 03:29:34;;;;;;;3.65;2.70;;;3.20;99.90;;;;;;4938047;28;20046;-63
2022/03/31 03:32:00;;;;;;;2.88;2.60;;;3.20;99.90;;;;;;4933230;28;20481;-63
2022/03/31 03:34:26;;;;;;;2.67;2.45;;;3.10;99.90;;;;;;4934154;28;20047;-63
2022/03/31 03:36:51;;;;;;;2.65;2.45;;;3.10;99.90;;;;;;4929242;28;20269;-62
2022/03/31 03:39:17;;;;;;;2.95;2.63;;;3.10;99.90;;;;;;4930962;28;20054;-63
2022/03/31 03:41:43;;;;;;;5.35;3.38;;;3.10;99.90;;;;;;4949020;28;20046;-63
2022/03/31 03:44:09;;;;;;;4.20;3.80;;;3.10;99.90;;;;;;4933474;28;20112;-62
2022/03/31 03:46:35;;;;;;;5.97;5.13;;;3.10;99.90;;;;;;4934902;28;20101;-62
2022/03/31 03:49:01;;;;;;;7.13;5.93;;;3.10;99.90;;;;;;4921682;28;20043;-63
2022/03/31 03:51:27;;;;;;;7.78;6.78;;;3.00;99.90;;;;;;4931582;28;20054;-63
2022/03/31 03:53:53;;;;;;;6.55;5.88;;;3.00;99.90;;;;;;4941282;28;20042;-62
2022/03/31 03:56:19;;;;;;;6.38;5.35;;;3.00;99.90;;;;;;4930690;28;20474;-63
2022/03/31 03:58:45;;;;;;;5.78;5.28;;;2.90;99.90;;;;;;4924751;28;20179;-62
2022/03/31 04:01:11;;;;;;;5.32;4.57;;;2.90;99.90;;;;;;4940704;28;20062;-63
2022/03/31 04:03:37;;;;;;;6.03;4.82;;;2.90;99.90;;;;;;4910416;28;20050;-62
2022/03/31 04:06:03;;;;;;;5.10;4.60;;;2.80;99.90;;;;;;4946176;28;20055;-63
2022/03/31 04:08:29;;;;;;;6.32;4.85;;;2.80;99.90;;;;;;4929079;28;20366;-62
2022/03/31 04:10:55;;;;;;;6.68;4.80;;;2.70;99.90;;;;;;4922657;28;20046;-62
2022/03/31 04:13:20;;;;;;;8.35;4.82;;;2.70;99.90;;;;;;4955418;28;20572;-62
2022/03/31 04:15:46;;;;;;;5.65;4.72;;;2.70;99.90;;;;;;4937656;28;20553;-62
2022/03/31 04:18:12;;;;;;;5.50;4.28;;;2.70;99.90;;;;;;4931202;28;20059;-63
2022/03/31 04:20:38;;;;;;;6.03;4.00;;;2.70;99.90;;;;;;4940424;28;20060;-63
2022/03/31 04:23:05;;;;;;;4.05;3.65;;;2.60;99.90;;;;;;4930527;28;20054;-63
2022/03/31 04:25:31;;;;;;;5.47;3.70;;;2.60;99.90;;;;;;4931652;28;20059;-62
2022/03/31 04:27:58;;;;;;;4.97;3.42;;;2.60;99.90;;;;;;4929997;28;20061;-63
2022/03/31 04:30:23;;;;;;;8.20;3.67;;;2.50;99.90;;;;;;4929206;28;20047;-61
2022/03/31 04:32:51;;;;;;;7.78;3.92;;;2.50;99.90;;;;;;4915155;28;20054;-63
2022/03/31 04:35:17;;;;;;;10.80;4.47;;;2.40;99.90;;;;;;4930525;28;20113;-62
2022/03/31 04:37:44;;;;;;;6.55;4.88;;;2.40;99.90;;;;;;4918924;28;20145;-62
2022/03/31 04:40:10;;;;;;;6.88;4.68;;;2.40;99.90;;;;;;4922698;28;20085;-62
2022/03/31 04:42:36;;;;;;;8.88;4.85;;;2.30;99.90;;;;;;4933883;28;20043;-62
2022/03/31 04:45:04;;;;;;;8.32;4.90;;;2.30;99.90;;;;;;4931652;28;20105;-62
2022/03/31 04:47:30;;;;;;;9.93;4.32;;;2.30;99.90;;;;;;4940480;28;20046;-63
2022/03/31 04:49:56;;;;;;;6.40;4.10;;;2.30;99.90;;;;;;4927645;28;20050;-62
2022/03/31 04:52:22;;;;;;;7.22;4.40;;;2.30;99.90;;;;;;4904105;28;20090;-62
2022/03/31 04:54:48;;;;;;;5.90;4.20;;;2.30;99.90;;;;;;4932598;28;20130;-62
2022/03/31 04:57:15;;;;;;;8.57;4.03;;;2.30;99.90;;;;;;4902430;28;20050;-63
2022/03/31 04:59:42;;;;;;;6.93;4.13;;;2.30;99.90;;;;;;4921857;28;20058;-63
2022/03/31 05:02:09;;;;;;;7.53;4.25;;;2.40;99.90;;;;;;4935052;28;20477;-63
2022/03/31 05:04:35;;;;;;;5.65;4.22;;;2.40;99.90;;;;;;4932304;28;20055;-62
2022/03/31 05:07:01;;;;;;;5.28;3.63;;;2.40;99.90;;;;;;4904143;28;20078;-63
2022/03/31 05:09:26;;;;;;;6.97;3.58;;;2.40;99.90;;;;;;4916176;28;20051;-62
2022/03/31 05:11:52;;;;;;;4.72;4.03;;;2.40;99.90;;;;;;4927538;28;20062;-63
2022/03/31 05:14:18;;;;;;;6.18;4.00;;;2.40;99.90;;;;;;4917295;28;20039;-63
2022/03/31 05:16:44;;;;;;;6.28;4.25;;;2.50;99.90;;;;;;4918000;28;20070;-62
2022/03/31 05:19:11;;;;;;;5.45;4.50;;;2.50;99.90;;;;;;4935948;28;20047;-63
2022/03/31 05:21:37;;;;;;;8.63;4.47;;;2.50;99.90;;;;;;4930951;28;20065;-63
2022/03/31 05:24:03;;;;;;;9.52;4.20;;;2.50;99.90;;;;;;4930371;28;20418;-62
2022/03/31 05:26:29;;;;;;;6.85;4.80;;;2.60;99.90;;;;;;4928102;28;20610;-62
2022/03/31 05:28:55;;;;;;;9.63;4.82;;;2.60;99.90;;;;;;4945954;28;20043;-63
2022/03/31 05:31:21;;;;;;;6.57;4.90;;;2.60;99.90;;;;;;4905007;28;20433;-62
2022/03/31 05:33:47;;;;;;;5.15;4.63;;;2.70;99.90;;;;;;4936387;28;20465;-62
2022/03/31 05:36:13;;;;;;;5.28;4.78;;;2.70;99.90;;;;;;4920730;28;20077;-62
2022/03/31 05:38:39;;;;;;;6.13;5.53;;;2.70;99.90;;;;;;4931680;28;20415;-63
2022/03/31 05:41:04;;;;;;;6.25;5.10;;;2.70;99.90;;;;;;4921657;28;20051;-62
2022/03/31 05:43:30;;;;;;;5.03;4.57;;;2.70;99.90;;;;;;4945709;28;20137;-63
2022/03/31 05:45:56;;;;;;;6.93;5.55;;;2.80;99.90;;;;;;4930386;28;20063;-63
2022/03/31 05:48:22;;;;;;;5.57;5.05;;;2.70;99.90;;;;;;4939872;28;20050;-62
2022/03/31 05:50:48;;;;;;;6.05;5.47;;;2.70;99.90;;;;;;4917721;28;20043;-62
2022/03/31 05:53:15;;;;;;;7.13;5.93;;;2.70;99.90;;;;;;4938806;28;20047;-62
2022/03/31 05:55:40;;;;;;;7.07;6.38;;;2.70;99.90;;;;;;4926116;28;20481;-63
2022/03/31 05:58:08;;;;;;;7.03;6.32;;;2.70;99.90;;;;;;4928198;28;20050;-63
2022/03/31 06:00:33;;;;;;;7.47;6.78;;;2.70;99.90;;;;;;4924198;28;20046;-63
2022/03/31 06:02:59;;;;;;;7.80;6.88;;;2.70;99.90;;;;;;4890274;28;20051;-62
2022/03/31 06:05:25;;;;;;;8.05;7.25;;;2.70;99.90;;;;;;4931980;28;20153;-62
2022/03/31 06:07:52;;;;;;;7.57;6.70;;;2.70;99.90;;;;;;4930921;28;20130;-62
2022/03/31 06:10:19;;;;;;;7.93;6.90;;;2.70;99.90;;;;;;4931674;28;20057;-62
2022/03/31 06:12:46;;;;;;;8.63;7.70;;;2.70;99.90;;;;;;4916319;28;20142;-62
2022/03/31 06:15:12;;;;;;;8.90;7.50;;;2.70;99.90;;;;;;4933506;28;20134;-63
2022/03/31 06:17:42;;;;;;;8.57;7.68;;;2.70;99.90;;;;;;4943067;28;20055;-63
2022/03/31 06:20:10;;;;;;;8.32;7.25;;;2.70;99.90;;;;;;4931066;28;20070;-63
2022/03/31 06:22:36;;;;;;;8.48;7.57;;;2.80;99.90;;;;;;4933278;28;20456;-63
2022/03/31 06:25:02;;;;;;;8.13;7.30;;;2.60;99.90;;;;;;4935050;28;20496;-62
2022/03/31 06:27:28;;;;;;;8.35;7.35;;;2.60;99.90;;;;;;4916949;28;20043;-62
2022/03/31 06:29:54;;;;;;;9.77;8.23;;;2.60;99.90;;;;;;4929713;28;20135;-63
2022/03/31 06:32:20;;;;;;;12.95;8.38;;;2.60;99.90;;;;;;4922167;28;20047;-62
2022/03/31 06:34:46;;;;;;;9.25;8.02;;;2.60;99.90;;;;;;4951756;28;20134;-63
2022/03/31 06:37:13;;;;;;;9.40;7.95;;;2.60;99.90;;;;;;4915483;28;20081;-62
2022/03/31 06:39:39;;;;;;;10.05;8.77;;;2.60;99.90;;;;;;4930399;28;20054;-63
2022/03/31 06:42:05;;;;;;;10.55;8.45;;;2.60;99.90;;;;;;4916284;28;20042;-63
2022/03/31 06:44:32;;;;;;;8.77;7.72;;;2.60;99.90;;;;;;4951994;28;20062;-63
2022/03/31 06:46:57;;;;;;;9.57;8.52;;;2.70;99.90;;;;;;4933249;28;20149;-63
2022/03/31 06:49:23;;;;;;;9.20;8.23;;;2.70;99.90;;;;;;4923164;28;20051;-62
2022/03/31 06:51:50;;;;;;;8.85;7.95;;;2.70;99.90;;;;;;4928369;28;20045;-62
2022/03/31 06:54:18;;;;;;;9.65;8.65;;;2.70;99.90;;;;;;4918192;28;20054;-63
2022/03/31 06:56:46;;;;;;;10.15;8.80;;;2.70;99.90;;;;;;4920392;28;20126;-63
2022/03/31 06:59:13;;;;;;;9.75;8.63;;;2.70;99.90;;;;;;4915834;28;20039;-62
2022/03/31 07:01:38;;;;;;;9.75;8.75;;;2.80;99.90;;;;;;4923649;28;20146;-63
2022/03/31 07:04:06;;;;;;;10.80;9.13;;;2.80;99.90;;;;;;4925528;28;20547;-64
2022/03/31 07:06:33;;;;;;;10.50;9.40;;;2.80;99.90;;;;;;4911395;28;20600;-63
2022/03/31 07:08:59;;;;;;;10.18;9.05;;;2.80;99.90;;;;;;4931898;28;20050;-63
2022/03/31 07:11:25;;;;;;;11.02;9.48;;;2.80;99.90;;;;;;4933898;28;20129;-63
2022/03/31 07:13:52;;;;;;;11.80;9.73;;;2.80;99.90;;;;;;4936506;28;20133;-62
2022/03/31 07:16:18;;;;;;;10.68;9.18;;;2.80;99.90;;;;;;4938931;28;20051;-63
2022/03/31 07:18:44;;;;;;;11.20;9.63;;;2.80;99.90;;;;;;4934477;28;20047;-63
2022/03/31 07:21:10;;;;;;;11.32;9.85;;;2.90;99.90;;;;;;4916666;28;20050;-62
2022/03/31 07:23:36;;;;;;;11.18;8.90;;;2.80;99.90;;;;;;4937647;28;20054;-62
2022/03/31 07:26:04;;;;;;;10.98;9.63;;;2.90;99.90;;;;;;4925951;28;20186;-62
2022/03/31 07:28:30;;;;;;;11.38;9.52;;;2.90;99.90;;;;;;4919865;28;20250;-62
2022/03/31 07:30:56;;;;;;;12.23;10.13;;;2.80;99.90;;;;;;4935595;28;20069;-62
2022/03/31 07:33:22;;;;;;;10.95;9.75;;;2.90;99.90;;;;;;4935171;28;20142;-63
2022/03/31 07:35:48;;;;;;;10.55;9.45;;;2.80;99.90;;;;;;4934496;28;20124;-63
2022/03/31 07:38:18;;;;;;;12.18;9.43;;;2.90;99.90;;;;;;4948835;28;20039;-62
2022/03/31 07:40:44;;;;;;;10.73;9.57;;;2.80;99.90;;;;;;4938550;28;20054;-62
2022/03/31 07:43:11;;;;;;;10.55;9.50;;;2.90;99.90;;;;;;4935921;28;20685;-63
2022/03/31 07:45:38;;;;;;;13.32;9.45;;;2.90;99.90;;;;;;4933993;28;20086;-63
2022/03/31 07:48:06;;;;;;;10.45;9.35;;;2.90;99.90;;;;;;4936762;28;20125;-62
2022/03/31 07:50:34;;;;;;;10.65;9.00;;;2.90;99.90;;;;;;4944937;28;20561;-62
2022/03/31 07:53:00;;;;;;;10.27;8.80;;;2.90;99.90;;;;;;4954052;28;20047;-62
2022/03/31 07:55:25;;;;;;;10.55;9.40;;;2.90;99.90;;;;;;4935026;28;20046;-63
2022/03/31 07:57:53;;;;;;;10.18;8.75;;;2.90;99.90;;;;;;4904909;28;20537;-62
2022/03/31 08:00:20;;;;;;;11.88;9.65;;;2.90;99.90;;;;;;4933954;28;20090;-62
2022/03/31 08:02:48;;;;;;;11.75;10.00;;;2.90;99.90;;;;;;4907070;28;20205;-63
2022/03/31 08:05:22;;;;;;;11.90;10.10;;;2.90;99.90;;;;;;4926548;28;20197;-63
2022/03/31 08:07:48;;;;;;;11.93;10.23;;;2.80;99.90;;;;;;4929979;28;20055;-62
2022/03/31 08:10:15;;;;;;;11.80;10.13;;;2.80;99.90;;;;;;4930712;28;20150;-63
2022/03/31 08:12:41;;;;;;;13.70;11.40;;;2.80;99.90;;;;;;4946759;28;20063;-62
2022/03/31 08:15:09;;;;;;;13.85;11.18;;;2.80;99.90;;;;;;4907457;28;20382;-63
2022/03/31 08:17:35;;;;;;;13.35;10.55;;;2.80;99.90;;;;;;4914921;28;20453;-63
2022/03/31 08:20:01;;;;;;;12.73;10.48;;;2.70;99.90;;;;;;4897757;28;20046;-63
2022/03/31 08:22:27;;;;;;;11.15;9.27;;;2.70;99.90;;;;;;4907900;28;20447;-63
2022/03/31 08:24:54;;;;;;;10.98;9.30;;;2.70;99.90;;;;;;4929355;28;20082;-63
2022/03/31 08:27:20;;;;;;;11.48;8.60;;;2.70;99.90;;;;;;4919407;28;20761;-63
2022/03/31 08:29:46;;;;;;;10.00;8.73;;;2.70;99.90;;;;;;4930620;28;20047;-62
2022/03/31 08:32:14;;;;;;;9.35;8.02;;;2.80;99.90;;;;;;4926599;28;20054;-64
2022/03/31 08:34:41;;;;;;;11.30;8.85;;;2.80;99.90;;;;;;4925570;28;20132;-63
2022/03/31 08:37:07;;;;;;;11.85;9.18;;;2.70;99.90;;;;;;4932594;28;20058;-63
2022/03/31 08:39:32;;;;;;;12.52;9.77;;;2.70;99.90;;;;;;4945494;28;20051;-62
2022/03/31 08:41:59;;;;;;;12.95;10.20;;;2.70;99.90;;;;;;4925666;28;20054;-63
2022/03/31 08:44:25;;;;;;;13.85;11.10;;;2.70;99.90;;;;;;4907584;28;20136;-62
2022/03/31 08:46:51;;;;;;;13.60;10.82;;;2.70;99.90;;;;;;4917689;28;20069;-63
2022/03/31 08:49:19;;;;;;;12.80;10.20;;;2.70;99.90;;;;;;4931608;28;20054;-62
2022/03/31 08:51:46;;;;;;;14.50;10.75;;;2.70;99.90;;;;;;4939633;28;20055;-63
2022/03/31 08:54:12;;;;;;;13.32;10.45;;;2.70;99.90;;;;;;4930772;28;20054;-62
2022/03/31 08:56:38;;;;;;;12.85;9.95;;;2.70;99.90;;;;;;4932917;28;20617;-63
2022/03/31 08:59:07;;;;;;;11.65;9.73;;;2.70;99.90;;;;;;4929280;28;20055;-62
2022/03/31 09:01:33;;;;;;;11.40;9.05;;;2.70;99.90;;;;;;4951033;28;20057;-62
2022/03/31 09:04:00;;;;;;;12.20;9.32;;;2.70;99.90;;;;;;4924547;28;20086;-62
2022/03/31 09:06:28;;;;;;;11.23;8.88;;;2.60;99.90;;;;;;4947979;28;20691;-62
2022/03/31 09:08:55;;;;;;;10.05;8.65;;;2.60;99.90;;;;;;4930814;28;20043;-62
2022/03/31 09:11:28;;;;;;;10.50;8.30;;;2.60;99.90;;;;;;4916827;28;20118;-62
2022/03/31 09:13:56;;;;;;;9.57;8.32;;;2.60;99.90;;;;;;4948239;28;20051;-62
2022/03/31 09:16:30;;;;;;;9.50;7.60;;;2.60;99.90;;;;;;4942114;28;20085;-62
2022/03/31 09:19:10;;;;;;;9.50;7.80;;;2.50;99.90;;;;;;4941423;28;20054;-63
2022/03/31 09:22:01;;;;;;;8.88;6.97;;;2.40;99.90;;;;;;4932129;28;20345;-63
2022/03/31 09:24:28;;;;;;;9.13;7.18;;;2.30;99.90;;;;;;4951968;28;20487;-62
2022/03/31 09:26:57;;;;;;;8.55;6.78;;;2.30;99.90;;;;;;4938490;28;20409;-62
2022/03/31 09:29:25;;;;;;;7.35;6.43;;;2.20;99.90;;;;;;4919201;28;20508;-63
2022/03/31 09:31:52;;;;;;;7.30;6.50;;;2.20;99.90;;;;;;4929146;28;20290;-61
2022/03/31 09:34:19;;;;;;;9.35;6.90;;;2.10;99.90;;;;;;4950677;28;20101;-62
2022/03/31 09:36:52;;;;;;;7.00;5.95;;;2.00;99.90;;;;;;4942637;28;20077;-63
2022/03/31 09:39:20;;;;;;;11.18;6.53;;;1.90;99.90;;;;;;4949497;28;20039;-62
2022/03/31 09:41:48;;;;;;;6.75;6.05;;;1.90;99.90;;;;;;4914939;28;20114;-62
2022/03/31 09:44:19;;;;;;;7.55;6.68;;;1.80;99.90;;;;;;4907774;28;20034;-62
2022/03/31 09:46:46;;;;;;;9.13;6.57;;;1.70;99.90;;;;;;4929532;28;20469;-63
2022/03/31 09:49:24;;;;;;;7.90;6.60;;;1.70;99.90;;;;;;4915477;28;20502;-63
2022/03/31 09:51:52;;;;;;;9.27;7.40;;;1.70;99.90;;;;;;4929653;28;20078;-62
2022/03/31 09:54:20;;;;;;;10.25;7.82;;;1.60;99.90;;;;;;4946493;28;20100;-62
2022/03/31 09:56:47;;;;;;;10.95;8.63;;;1.60;99.90;;;;;;4893446;28;20256;-63
2022/03/31 09:59:14;;;;;;;11.15;8.45;;;1.60;99.90;;;;;;4922002;28;20129;-62
2022/03/31 10:01:41;;;;;;;9.57;8.07;;;1.50;99.90;;;;;;4941958;28;20043;-62
2022/03/31 10:04:09;;;;;;;9.77;7.88;;;1.50;99.90;;;;;;4929968;28;20058;-63
2022/03/31 10:06:36;;;;;;;9.10;7.18;;;1.50;99.90;;;;;;4930189;28;20051;-62
2022/03/31 10:09:05;;;;;;;8.80;7.15;;;1.40;99.90;;;;;;4921229;28;20035;-63
2022/03/31 10:11:34;;;;;;;9.63;7.35;;;1.40;99.90;;;;;;4911997;28;20071;-62
2022/03/31 10:14:24;;;;;;;9.90;7.53;;;1.40;99.90;;;;;;4948230;28;20181;-61
2022/03/31 10:16:57;;;;;;;8.95;7.22;;;1.40;99.90;;;;;;4929694;28;20045;-62
2022/03/31 10:19:41;;;;;;;9.13;7.20;;;1.40;99.90;;;;;;4933925;28;20043;-62
2022/03/31 10:25:07;;;;;;;9.35;7.63;;;1.30;99.90;;;;;;4931960;28;20047;-62
2022/03/31 10:27:34;;;;;;;10.75;7.47;;;1.30;99.90;;;;;;4929515;28;20448;-62
2022/03/31 10:30:17;;;;;;;8.30;6.53;;;1.20;99.90;;;;;;4929314;28;20420;-63
2022/03/31 10:33:04;;;;;;;8.10;6.75;;;1.20;99.90;;;;;;4924295;28;20061;-62
2022/03/31 10:35:35;;;;;;;8.07;6.78;;;1.20;99.90;;;;;;4950866;28;20058;-62
2022/03/31 10:38:33;;;;;;;8.52;6.78;;;1.20;99.90;;;;;;4931092;28;20055;-62
2022/03/31 10:41:08;;;;;;;8.82;6.82;;;1.20;99.90;;;;;;4921104;28;20059;-63
2022/03/31 10:43:39;;;;;;;8.45;6.90;;;1.10;99.90;;;;;;4919491;28;20054;-62
2022/03/31 10:46:18;;;;;;;10.98;7.63;;;1.10;99.90;;;;;;4928872;28;20038;-62
2022/03/31 10:48:55;;;;;;;8.18;6.90;;;1.10;99.90;;;;;;4936591;28;20043;-62
2022/03/31 10:51:51;;;;;;;8.63;6.95;;;1.20;99.90;;;;;;4930843;28;20039;-63
2022/03/31 10:54:33;;;;;;;8.65;7.07;;;1.20;99.90;;;;;;4939175;28;20240;-63
2022/03/31 10:57:13;;;;;;;7.90;6.88;;;1.20;99.90;;;;;;4936753;28;20047;-63
2022/03/31 10:59:40;;;;;;;10.00;6.97;;;1.20;99.90;;;;;;4924566;28;20081;-63
2022/03/31 11:02:15;;;;;;;9.95;6.93;;;1.30;99.90;;;;;;4933261;28;20051;-62
2022/03/31 11:04:46;;;;;;;8.48;6.93;;;1.30;99.90;;;;;;4939339;28;20074;-63
2022/03/31 11:07:15;;;;;;;8.35;6.85;;;1.30;99.90;;;;;;4926024;28;20054;-62
2022/03/31 11:09:42;;;;;;;7.95;6.60;;;1.30;99.90;;;;;;4940841;28;20567;-63
2022/03/31 11:12:19;;;;;;;8.73;6.88;;;1.30;99.90;;;;;;4933596;28;20357;-63
2022/03/31 11:14:57;;;;;;;9.07;6.47;;;1.30;99.90;;;;;;4928184;28;20062;-63
2022/03/31 11:17:23;;;;;;;11.30;6.40;;;1.40;99.90;;;;;;4932794;28;20073;-63
2022/03/31 11:19:50;;;;;;;7.93;6.78;;;1.40;99.90;;;;;;4939544;28;20074;-63
2022/03/31 11:22:24;;;;;;;7.47;6.22;;;1.40;99.90;;;;;;4936136;28;20508;-63
2022/03/31 11:24:54;;;;;;;8.13;6.65;;;1.40;99.90;;;;;;4940767;28;20047;-63
2022/03/31 11:27:50;;;;;;;7.60;6.65;;;1.40;99.90;;;;;;4931041;28;20106;-63
2022/03/31 11:30:25;;;;;;;7.82;6.28;;;1.40;99.90;;;;;;4920085;28;20039;-63
2022/03/31 11:32:56;;;;;;;9.27;6.53;;;1.30;99.90;;;;;;4923464;28;20501;-63
2022/03/31 11:35:24;;;;;;;7.78;6.15;;;1.30;99.90;;;;;;4941049;28;20505;-63
2022/03/31 11:37:57;;;;;;;8.68;6.40;;;1.30;99.90;;;;;;4953454;28;20444;-63
2022/03/31 11:40:29;;;;;;;7.35;6.55;;;1.30;99.90;;;;;;4911835;28;20051;-63
2022/03/31 11:42:57;;;;;;;7.70;6.15;;;1.30;99.90;;;;;;4941556;28;20603;-64
2022/03/31 11:45:48;;;;;;;7.50;6.10;;;1.30;99.90;;;;;;4935310;28;20043;-64
2022/03/31 11:48:16;;;;;;;7.70;6.55;;;1.20;99.90;;;;;;4933704;28;20053;-63
2022/03/31 11:50:57;;;;;;;8.80;6.05;;;1.20;99.90;;;;;;4919634;28;20061;-63
2022/03/31 11:53:27;;;;;;;6.78;6.07;;;1.20;99.90;;;;;;4930624;28;20043;-63
2022/03/31 11:56:00;;;;;;;6.68;5.78;;;1.20;99.90;;;;;;4916150;28;20133;-63
2022/03/31 11:58:30;;;;;;;8.13;6.00;;;1.10;99.90;;;;;;4929067;28;20062;-63
2022/03/31 12:00:56;;;;;;;6.70;5.72;;;1.10;99.90;;;;;;4933401;28;20039;-63
2022/03/31 12:03:23;;;;;;;9.82;6.78;;;1.10;99.90;;;;;;4950124;28;20603;-64
2022/03/31 12:05:59;;;;;;;8.98;6.25;;;1.00;99.90;;;;;;4952833;28;20094;-64
2022/03/31 12:08:27;;;;;;;7.57;6.43;;;1.00;99.90;;;;;;4929362;28;20190;-63
2022/03/31 12:10:54;;;;;;;8.32;6.40;;;1.00;99.90;;;;;;4918677;28;20047;-63
2022/03/31 12:13:22;;;;;;;8.48;6.95;;;1.10;99.90;;;;;;4928567;28;20054;-64
2022/03/31 12:15:48;;;;;;;9.30;6.60;;;1.00;99.90;;;;;;4932759;28;20059;-63
2022/03/31 12:18:17;;;;;;;7.80;6.72;;;1.00;99.90;;;;;;4894261;28;20148;-63
2022/03/31 12:20:46;;;;;;;9.77;7.00;;;1.10;99.90;;;;;;4943211;28;20046;-64
2022/03/31 12:23:23;;;;;;;8.40;6.63;;;1.10;99.90;;;;;;4910335;28;20051;-63
2022/03/31 12:25:50;;;;;;;10.02;7.45;;;1.20;99.90;;;;;;4939827;28;20167;-64
2022/03/31 12:28:23;;;;;;;9.45;7.75;;;1.10;99.90;;;;;;4913530;28;20084;-64
2022/03/31 12:30:50;;;;;;;8.93;7.20;;;1.10;99.90;;;;;;4927392;28;20141;-64
2022/03/31 12:33:23;;;;;;;10.18;7.80;;;1.10;99.90;;;;;;4914100;28;20054;-64
2022/03/31 12:35:51;;;;;;;9.23;7.97;;;1.10;99.90;;;;;;4928803;28;20428;-64
2022/03/31 12:38:17;;;;;;;10.27;8.25;;;1.10;99.90;;;;;;4914734;28;20075;-64
2022/03/31 12:40:44;;;;;;;10.65;8.18;;;1.10;99.90;;;;;;4914795;28;20050;-64
2022/03/31 12:43:09;;;;;;;9.50;8.32;;;1.10;99.90;;;;;;4926211;28;20070;-64
2022/03/31 12:45:36;;;;;;;10.00;8.35;;;1.10;99.90;;;;;;4925553;28;20400;-64
2022/03/31 12:48:11;;;;;;;9.68;8.25;;;1.10;99.90;;;;;;4930746;28;20134;-64
2022/03/31 12:50:39;;;;;;;11.07;9.10;;;1.10;99.90;;;;;;4949437;28;20047;-63
2022/03/31 12:53:06;;;;;;;10.35;8.73;;;1.10;99.90;;;;;;4926474;28;20446;-64
2022/03/31 12:55:35;;;;;;;13.32;9.02;;;1.10;99.90;;;;;;4948492;28;20090;-64
2022/03/31 12:58:03;;;;;;;13.48;9.45;;;1.10;99.90;;;;;;4936177;28;20644;-64
2022/03/31 13:00:31;;;;;;;9.88;8.70;;;1.10;99.90;;;;;;4933820;28;20573;-64
2022/03/31 13:02:59;;;;;;;10.63;9.40;;;1.10;99.90;;;;;;4928187;28;20055;-64